sensor_id;sensor_type;location;lat;lon;timestamp;temperature;humidity
22578;DHT22;11455;52.390;13.028;2022-08-01T00:00:12;22.80;98.50
22578;DHT22;11455;52.390;13.028;2022-08-01T00:02:38;22.90;86.20
22578;DHT22;11455;52.390;13.028;2022-08-01T00:05:04;23.10;72.20
22578;DHT22;11455;52.390;13.028;2022-08-01T00:07:31;23.20;46.50
22578;DHT22;11455;52.390;13.028;2022-08-01T00:09:57;23.30;46.70
22578;DHT22;11455;52.390;13.028;2022-08-01T00:12:22;23.40;32.30
22578;DHT22;11455;52.390;13.028;2022-08-01T00:14:48;23.40;33.00
22578;DHT22;11455;52.390;13.028;2022-08-01T00:17:14;23.40;54.80
22578;DHT22;11455;52.390;13.028;2022-08-01T00:19:39;23.20;79.80
22578;DHT22;11455;52.390;13.028;2022-08-01T00:22:07;23.10;99.90
22578;DHT22;11455;52.390;13.028;2022-08-01T00:24:33;23.00;99.90
22578;DHT22;11455;52.390;13.028;2022-08-01T00:26:58;22.90;99.90
22578;DHT22;11455;52.390;13.028;2022-08-01T00:29:24;22.80;99.90
22578;DHT22;11455;52.390;13.028;2022-08-01T00:31:49;22.70;99.90
22578;DHT22;11455;52.390;13.028;2022-08-01T00:34:15;22.70;99.90
22578;DHT22;11455;52.390;13.028;2022-08-01T00:36:40;22.80;99.90
22578;DHT22;11455;52.390;13.028;2022-08-01T00:39:06;23.00;99.90
22578;DHT22;11455;52.390;13.028;2022-08-01T00:41:32;23.10;99.90
22578;DHT22;11455;52.390;13.028;2022-08-01T00:43:57;23.10;99.90
22578;DHT22;11455;52.390;13.028;2022-08-01T00:46:23;23.10;99.90
22578;DHT22;11455;52.390;13.028;2022-08-01T00:48:48;23.10;99.90
22578;DHT22;11455;52.390;13.028;2022-08-01T00:51:14;22.90;99.90
22578;DHT22;11455;52.390;13.028;2022-08-01T00:53:40;22.80;99.90
22578;DHT22;11455;52.390;13.028;2022-08-01T00:56:06;22.90;99.90
22578;DHT22;11455;52.390;13.028;2022-08-01T00:58:32;23.00;99.90
22578;DHT22;11455;52.390;13.028;2022-08-01T01:00:59;23.10;99.90
22578;DHT22;11455;52.390;13.028;2022-08-01T01:03:24;23.10;99.90
22578;DHT22;11455;52.390;13.028;2022-08-01T01:08:30;22.60;99.90
22578;DHT22;11455;52.390;13.028;2022-08-01T01:11:04;22.60;99.90
22578;DHT22;11455;52.390;13.028;2022-08-01T01:13:45;22.40;99.90
22578;DHT22;11455;52.390;13.028;2022-08-01T01:16:13;22.40;99.90
22578;DHT22;11455;52.390;13.028;2022-08-01T01:18:53;22.40;99.90
22578;DHT22;11455;52.390;13.028;2022-08-01T01:26:21;22.30;99.90
22578;DHT22;11455;52.390;13.028;2022-08-01T01:31:14;22.60;99.90
22578;DHT22;11455;52.390;13.028;2022-08-01T01:33:40;22.80;99.90
22578;DHT22;11455;52.390;13.028;2022-08-01T01:36:08;22.90;99.90
22578;DHT22;11455;52.390;13.028;2022-08-01T01:38:36;23.00;99.90
22578;DHT22;11455;52.390;13.028;2022-08-01T01:41:07;23.00;99.90
22578;DHT22;11455;52.390;13.028;2022-08-01T01:43:33;23.00;99.90
22578;DHT22;11455;52.390;13.028;2022-08-01T01:46:00;23.10;99.90
22578;DHT22;11455;52.390;13.028;2022-08-01T01:48:27;23.10;99.90
22578;DHT22;11455;52.390;13.028;2022-08-01T01:50:54;23.20;99.90
22578;DHT22;11455;52.390;13.028;2022-08-01T01:53:20;23.30;99.90
22578;DHT22;11455;52.390;13.028;2022-08-01T01:55:48;23.40;99.90
22578;DHT22;11455;52.390;13.028;2022-08-01T01:58:15;23.40;99.90
22578;DHT22;11455;52.390;13.028;2022-08-01T02:00:41;23.30;99.90
22578;DHT22;11455;52.390;13.028;2022-08-01T02:03:09;23.30;99.90
22578;DHT22;11455;52.390;13.028;2022-08-01T02:05:35;23.30;99.90
22578;DHT22;11455;52.390;13.028;2022-08-01T02:08:02;23.40;99.90
22578;DHT22;11455;52.390;13.028;2022-08-01T02:10:29;23.40;99.40
22578;DHT22;11455;52.390;13.028;2022-08-01T02:12:55;23.30;99.90
22578;DHT22;11455;52.390;13.028;2022-08-01T02:15:22;23.30;99.90
22578;DHT22;11455;52.390;13.028;2022-08-01T02:17:48;23.20;99.90
22578;DHT22;11455;52.390;13.028;2022-08-01T02:20:15;23.20;99.90
22578;DHT22;11455;52.390;13.028;2022-08-01T02:23:23;23.10;99.90
22578;DHT22;11455;52.390;13.028;2022-08-01T02:25:42;23.20;99.90
22578;DHT22;11455;52.390;13.028;2022-08-01T02:28:20;23.30;99.90
22578;DHT22;11455;52.390;13.028;2022-08-01T02:30:50;23.30;99.90
22578;DHT22;11455;52.390;13.028;2022-08-01T02:33:17;23.20;99.90
22578;DHT22;11455;52.390;13.028;2022-08-01T02:35:52;23.20;99.90
22578;DHT22;11455;52.390;13.028;2022-08-01T02:38:20;23.30;99.90
22578;DHT22;11455;52.390;13.028;2022-08-01T02:40:47;23.20;99.90
22578;DHT22;11455;52.390;13.028;2022-08-01T02:43:15;23.20;99.90
22578;DHT22;11455;52.390;13.028;2022-08-01T02:45:43;23.10;99.90
22578;DHT22;11455;52.390;13.028;2022-08-01T02:48:10;23.10;99.90
22578;DHT22;11455;52.390;13.028;2022-08-01T02:50:37;23.10;99.90
22578;DHT22;11455;52.390;13.028;2022-08-01T02:53:03;23.10;99.90
22578;DHT22;11455;52.390;13.028;2022-08-01T02:55:31;23.10;99.90
22578;DHT22;11455;52.390;13.028;2022-08-01T02:57:57;23.10;99.90
22578;DHT22;11455;52.390;13.028;2022-08-01T03:00:24;23.10;99.90
22578;DHT22;11455;52.390;13.028;2022-08-01T03:02:53;23.00;99.90
22578;DHT22;11455;52.390;13.028;2022-08-01T03:05:20;23.00;99.90
22578;DHT22;11455;52.390;13.028;2022-08-01T03:07:46;23.00;99.90
22578;DHT22;11455;52.390;13.028;2022-08-01T03:10:13;22.90;99.90
22578;DHT22;11455;52.390;13.028;2022-08-01T03:12:39;22.90;99.90
22578;DHT22;11455;52.390;13.028;2022-08-01T03:15:06;22.90;99.90
22578;DHT22;11455;52.390;13.028;2022-08-01T03:17:32;22.90;99.90
22578;DHT22;11455;52.390;13.028;2022-08-01T03:19:58;22.90;99.90
22578;DHT22;11455;52.390;13.028;2022-08-01T03:22:25;22.90;99.90
22578;DHT22;11455;52.390;13.028;2022-08-01T03:24:52;22.90;99.90
22578;DHT22;11455;52.390;13.028;2022-08-01T03:27:17;23.00;99.90
22578;DHT22;11455;52.390;13.028;2022-08-01T03:29:44;23.00;99.90
22578;DHT22;11455;52.390;13.028;2022-08-01T03:32:10;23.00;99.90
22578;DHT22;11455;52.390;13.028;2022-08-01T03:34:36;23.00;99.90
22578;DHT22;11455;52.390;13.028;2022-08-01T03:37:02;23.00;99.90
22578;DHT22;11455;52.390;13.028;2022-08-01T03:39:30;23.00;99.90
22578;DHT22;11455;52.390;13.028;2022-08-01T03:41:59;23.00;99.90
22578;DHT22;11455;52.390;13.028;2022-08-01T03:44:27;23.10;99.90
22578;DHT22;11455;52.390;13.028;2022-08-01T03:46:56;23.10;99.90
22578;DHT22;11455;52.390;13.028;2022-08-01T03:49:24;23.10;99.90
22578;DHT22;11455;52.390;13.028;2022-08-01T03:51:51;23.00;99.90
22578;DHT22;11455;52.390;13.028;2022-08-01T03:54:25;22.90;99.90
22578;DHT22;11455;52.390;13.028;2022-08-01T03:56:55;22.80;99.90
22578;DHT22;11455;52.390;13.028;2022-08-01T03:59:22;22.80;99.90
22578;DHT22;11455;52.390;13.028;2022-08-01T04:01:48;22.70;99.90
22578;DHT22;11455;52.390;13.028;2022-08-01T04:04:14;22.50;99.90
22578;DHT22;11455;52.390;13.028;2022-08-01T04:06:40;22.50;99.90
22578;DHT22;11455;52.390;13.028;2022-08-01T04:09:09;22.50;99.90
22578;DHT22;11455;52.390;13.028;2022-08-01T04:11:35;22.50;99.90
22578;DHT22;11455;52.390;13.028;2022-08-01T04:14:01;22.50;99.90
22578;DHT22;11455;52.390;13.028;2022-08-01T04:16:26;22.60;99.90
22578;DHT22;11455;52.390;13.028;2022-08-01T04:18:52;22.50;99.90
22578;DHT22;11455;52.390;13.028;2022-08-01T04:21:18;22.50;99.90
22578;DHT22;11455;52.390;13.028;2022-08-01T04:23:45;22.50;99.90
22578;DHT22;11455;52.390;13.028;2022-08-01T04:26:12;22.50;99.90
22578;DHT22;11455;52.390;13.028;2022-08-01T04:28:39;22.40;99.90
22578;DHT22;11455;52.390;13.028;2022-08-01T04:31:06;22.40;99.90
22578;DHT22;11455;52.390;13.028;2022-08-01T04:33:34;22.40;99.90
22578;DHT22;11455;52.390;13.028;2022-08-01T04:36:02;22.30;99.90
22578;DHT22;11455;52.390;13.028;2022-08-01T04:38:28;22.30;99.90
22578;DHT22;11455;52.390;13.028;2022-08-01T04:40:55;22.30;99.90
22578;DHT22;11455;52.390;13.028;2022-08-01T04:43:21;22.30;99.90
22578;DHT22;11455;52.390;13.028;2022-08-01T04:45:48;22.30;99.90
22578;DHT22;11455;52.390;13.028;2022-08-01T04:48:15;22.30;99.90
22578;DHT22;11455;52.390;13.028;2022-08-01T04:50:41;22.30;99.90
22578;DHT22;11455;52.390;13.028;2022-08-01T04:53:14;22.30;99.90
22578;DHT22;11455;52.390;13.028;2022-08-01T04:55:42;22.40;99.90
22578;DHT22;11455;52.390;13.028;2022-08-01T04:58:11;22.40;99.90
22578;DHT22;11455;52.390;13.028;2022-08-01T05:00:37;22.40;99.90
22578;DHT22;11455;52.390;13.028;2022-08-01T05:03:03;22.40;99.90
22578;DHT22;11455;52.390;13.028;2022-08-01T05:05:29;22.30;99.90
22578;DHT22;11455;52.390;13.028;2022-08-01T05:07:56;22.30;99.90
22578;DHT22;11455;52.390;13.028;2022-08-01T05:10:24;22.30;99.90
22578;DHT22;11455;52.390;13.028;2022-08-01T05:12:52;22.20;99.90
22578;DHT22;11455;52.390;13.028;2022-08-01T05:15:17;22.20;99.90
22578;DHT22;11455;52.390;13.028;2022-08-01T05:17:43;22.20;99.90
22578;DHT22;11455;52.390;13.028;2022-08-01T05:20:09;22.20;99.90
22578;DHT22;11455;52.390;13.028;2022-08-01T05:22:34;22.30;99.90
22578;DHT22;11455;52.390;13.028;2022-08-01T05:25:00;22.20;99.90
22578;DHT22;11455;52.390;13.028;2022-08-01T05:27:26;22.30;99.90
22578;DHT22;11455;52.390;13.028;2022-08-01T05:29:51;22.40;99.90
22578;DHT22;11455;52.390;13.028;2022-08-01T05:32:17;22.40;99.90
22578;DHT22;11455;52.390;13.028;2022-08-01T05:34:45;22.30;99.90
22578;DHT22;11455;52.390;13.028;2022-08-01T05:37:10;22.20;99.90
22578;DHT22;11455;52.390;13.028;2022-08-01T05:39:36;22.20;99.90
22578;DHT22;11455;52.390;13.028;2022-08-01T05:42:01;22.30;99.90
22578;DHT22;11455;52.390;13.028;2022-08-01T05:44:27;22.30;99.90
22578;DHT22;11455;52.390;13.028;2022-08-01T05:46:53;22.30;99.90
22578;DHT22;11455;52.390;13.028;2022-08-01T05:49:18;22.40;99.90
22578;DHT22;11455;52.390;13.028;2022-08-01T05:51:44;22.40;99.90
22578;DHT22;11455;52.390;13.028;2022-08-01T05:54:10;22.40;99.90
22578;DHT22;11455;52.390;13.028;2022-08-01T05:56:35;22.40;99.90
22578;DHT22;11455;52.390;13.028;2022-08-01T05:59:01;22.10;99.90
22578;DHT22;11455;52.390;13.028;2022-08-01T06:01:27;21.90;99.90
22578;DHT22;11455;52.390;13.028;2022-08-01T06:03:52;21.80;99.90
22578;DHT22;11455;52.390;13.028;2022-08-01T06:06:22;21.80;99.90
22578;DHT22;11455;52.390;13.028;2022-08-01T06:08:48;21.90;99.90
22578;DHT22;11455;52.390;13.028;2022-08-01T06:11:13;21.90;99.90
22578;DHT22;11455;52.390;13.028;2022-08-01T06:13:39;21.90;99.90
22578;DHT22;11455;52.390;13.028;2022-08-01T06:16:05;21.90;99.90
22578;DHT22;11455;52.390;13.028;2022-08-01T06:18:30;21.80;99.90
22578;DHT22;11455;52.390;13.028;2022-08-01T06:20:56;21.80;99.90
22578;DHT22;11455;52.390;13.028;2022-08-01T06:23:21;21.80;99.90
22578;DHT22;11455;52.390;13.028;2022-08-01T06:25:47;21.80;99.90
22578;DHT22;11455;52.390;13.028;2022-08-01T06:28:13;21.70;99.90
22578;DHT22;11455;52.390;13.028;2022-08-01T06:30:38;21.70;99.90
22578;DHT22;11455;52.390;13.028;2022-08-01T06:33:04;21.70;99.90
22578;DHT22;11455;52.390;13.028;2022-08-01T06:35:31;21.70;99.90
22578;DHT22;11455;52.390;13.028;2022-08-01T06:37:59;21.70;99.90
22578;DHT22;11455;52.390;13.028;2022-08-01T06:40:27;21.80;99.90
22578;DHT22;11455;52.390;13.028;2022-08-01T06:42:52;21.80;99.90
22578;DHT22;11455;52.390;13.028;2022-08-01T06:45:18;21.70;99.90
22578;DHT22;11455;52.390;13.028;2022-08-01T06:47:44;21.60;99.90
22578;DHT22;11455;52.390;13.028;2022-08-01T06:50:10;21.90;99.90
22578;DHT22;11455;52.390;13.028;2022-08-01T06:52:38;21.90;99.90
22578;DHT22;11455;52.390;13.028;2022-08-01T06:55:04;21.90;99.90
22578;DHT22;11455;52.390;13.028;2022-08-01T06:57:29;22.00;99.90
22578;DHT22;11455;52.390;13.028;2022-08-01T06:59:55;22.00;99.90
22578;DHT22;11455;52.390;13.028;2022-08-01T07:02:21;22.10;99.90
22578;DHT22;11455;52.390;13.028;2022-08-01T07:04:49;22.00;99.90
22578;DHT22;11455;52.390;13.028;2022-08-01T07:07:14;22.00;99.90
22578;DHT22;11455;52.390;13.028;2022-08-01T07:09:40;22.00;99.90
22578;DHT22;11455;52.390;13.028;2022-08-01T07:12:09;22.00;99.90
22578;DHT22;11455;52.390;13.028;2022-08-01T07:14:35;22.10;99.90
22578;DHT22;11455;52.390;13.028;2022-08-01T07:17:00;22.20;99.90
22578;DHT22;11455;52.390;13.028;2022-08-01T07:19:26;22.20;99.90
22578;DHT22;11455;52.390;13.028;2022-08-01T07:21:53;22.20;99.90
22578;DHT22;11455;52.390;13.028;2022-08-01T07:24:18;22.10;99.90
22578;DHT22;11455;52.390;13.028;2022-08-01T07:26:45;22.00;99.90
22578;DHT22;11455;52.390;13.028;2022-08-01T07:29:11;22.10;99.90
22578;DHT22;11455;52.390;13.028;2022-08-01T07:31:36;22.20;99.90
22578;DHT22;11455;52.390;13.028;2022-08-01T07:34:02;22.20;99.90
22578;DHT22;11455;52.390;13.028;2022-08-01T07:36:28;22.20;99.90
22578;DHT22;11455;52.390;13.028;2022-08-01T07:38:53;22.10;99.90
22578;DHT22;11455;52.390;13.028;2022-08-01T07:41:22;22.00;99.90
22578;DHT22;11455;52.390;13.028;2022-08-01T07:43:47;22.00;99.90
22578;DHT22;11455;52.390;13.028;2022-08-01T07:46:14;22.00;99.90
22578;DHT22;11455;52.390;13.028;2022-08-01T07:48:40;21.90;99.90
22578;DHT22;11455;52.390;13.028;2022-08-01T07:51:06;22.00;99.90
22578;DHT22;11455;52.390;13.028;2022-08-01T07:53:34;22.00;99.90
22578;DHT22;11455;52.390;13.028;2022-08-01T07:55:59;22.00;99.90
22578;DHT22;11455;52.390;13.028;2022-08-01T07:58:25;22.10;99.90
22578;DHT22;11455;52.390;13.028;2022-08-01T08:00:53;22.30;99.90
22578;DHT22;11455;52.390;13.028;2022-08-01T08:03:19;22.50;99.90
22578;DHT22;11455;52.390;13.028;2022-08-01T08:05:47;22.60;99.90
22578;DHT22;11455;52.390;13.028;2022-08-01T08:08:13;22.60;99.90
22578;DHT22;11455;52.390;13.028;2022-08-01T08:10:41;22.60;99.90
22578;DHT22;11455;52.390;13.028;2022-08-01T08:13:06;22.60;99.90
22578;DHT22;11455;52.390;13.028;2022-08-01T08:15:32;22.60;99.90
22578;DHT22;11455;52.390;13.028;2022-08-01T08:17:58;22.40;99.90
22578;DHT22;11455;52.390;13.028;2022-08-01T08:20:23;22.40;99.90
22578;DHT22;11455;52.390;13.028;2022-08-01T08:22:52;22.30;99.90
22578;DHT22;11455;52.390;13.028;2022-08-01T08:25:18;22.30;99.90
22578;DHT22;11455;52.390;13.028;2022-08-01T08:27:47;22.30;99.90
22578;DHT22;11455;52.390;13.028;2022-08-01T08:30:18;22.40;99.90
22578;DHT22;11455;52.390;13.028;2022-08-01T08:32:44;22.40;99.90
22578;DHT22;11455;52.390;13.028;2022-08-01T08:35:09;22.40;99.90
22578;DHT22;11455;52.390;13.028;2022-08-01T08:37:35;22.40;99.90
22578;DHT22;11455;52.390;13.028;2022-08-01T08:40:04;22.30;99.90
22578;DHT22;11455;52.390;13.028;2022-08-01T08:42:30;22.40;99.90
22578;DHT22;11455;52.390;13.028;2022-08-01T08:44:55;22.60;99.90
22578;DHT22;11455;52.390;13.028;2022-08-01T08:47:22;22.60;99.90
22578;DHT22;11455;52.390;13.028;2022-08-01T08:49:50;22.60;99.90
22578;DHT22;11455;52.390;13.028;2022-08-01T08:52:17;22.50;99.90
22578;DHT22;11455;52.390;13.028;2022-08-01T08:54:44;22.50;99.90
22578;DHT22;11455;52.390;13.028;2022-08-01T08:57:13;22.50;99.90
22578;DHT22;11455;52.390;13.028;2022-08-01T08:59:38;22.60;99.90
22578;DHT22;11455;52.390;13.028;2022-08-01T09:02:04;22.50;99.90
22578;DHT22;11455;52.390;13.028;2022-08-01T09:04:32;22.50;99.90
22578;DHT22;11455;52.390;13.028;2022-08-01T09:06:58;22.60;99.90
22578;DHT22;11455;52.390;13.028;2022-08-01T09:09:23;22.60;99.90
22578;DHT22;11455;52.390;13.028;2022-08-01T09:11:49;22.60;99.90
22578;DHT22;11455;52.390;13.028;2022-08-01T09:14:15;22.50;99.90
22578;DHT22;11455;52.390;13.028;2022-08-01T09:16:59;22.50;99.90
22578;DHT22;11455;52.390;13.028;2022-08-01T09:19:26;22.50;99.90
22578;DHT22;11455;52.390;13.028;2022-08-01T09:22:00;22.60;99.90
22578;DHT22;11455;52.390;13.028;2022-08-01T09:24:27;22.80;99.90
22578;DHT22;11455;52.390;13.028;2022-08-01T09:26:53;22.90;99.90
22578;DHT22;11455;52.390;13.028;2022-08-01T09:29:26;23.00;99.90
22578;DHT22;11455;52.390;13.028;2022-08-01T09:31:53;23.10;99.90
22578;DHT22;11455;52.390;13.028;2022-08-01T09:34:26;23.00;99.90
22578;DHT22;11455;52.390;13.028;2022-08-01T09:36:56;22.80;99.90
22578;DHT22;11455;52.390;13.028;2022-08-01T09:39:31;22.90;99.90
22578;DHT22;11455;52.390;13.028;2022-08-01T09:41:59;22.70;99.90
22578;DHT22;11455;52.390;13.028;2022-08-01T09:44:38;22.80;99.90
22578;DHT22;11455;52.390;13.028;2022-08-01T09:47:04;22.80;99.90
22578;DHT22;11455;52.390;13.028;2022-08-01T09:49:30;22.70;99.90
22578;DHT22;11455;52.390;13.028;2022-08-01T09:51:56;22.60;99.90
22578;DHT22;11455;52.390;13.028;2022-08-01T09:54:29;22.60;99.90
22578;DHT22;11455;52.390;13.028;2022-08-01T09:56:55;22.60;99.90
22578;DHT22;11455;52.390;13.028;2022-08-01T09:59:38;22.60;99.90
22578;DHT22;11455;52.390;13.028;2022-08-01T10:02:07;22.60;99.90
22578;DHT22;11455;52.390;13.028;2022-08-01T10:04:33;22.50;99.90
22578;DHT22;11455;52.390;13.028;2022-08-01T10:07:06;22.50;99.90
22578;DHT22;11455;52.390;13.028;2022-08-01T10:09:33;22.60;99.90
22578;DHT22;11455;52.390;13.028;2022-08-01T10:12:01;22.60;99.90
22578;DHT22;11455;52.390;13.028;2022-08-01T10:14:27;22.70;99.90
22578;DHT22;11455;52.390;13.028;2022-08-01T10:16:53;22.80;99.90
22578;DHT22;11455;52.390;13.028;2022-08-01T10:19:21;22.80;99.90
22578;DHT22;11455;52.390;13.028;2022-08-01T10:21:46;22.80;99.90
22578;DHT22;11455;52.390;13.028;2022-08-01T10:24:15;22.70;99.90
22578;DHT22;11455;52.390;13.028;2022-08-01T10:26:40;22.60;99.90
22578;DHT22;11455;52.390;13.028;2022-08-01T10:29:07;22.50;99.90
22578;DHT22;11455;52.390;13.028;2022-08-01T10:31:33;22.40;99.90
22578;DHT22;11455;52.390;13.028;2022-08-01T10:33:59;22.50;99.90
22578;DHT22;11455;52.390;13.028;2022-08-01T10:36:26;22.40;99.90
22578;DHT22;11455;52.390;13.028;2022-08-01T10:38:53;22.40;99.90
22578;DHT22;11455;52.390;13.028;2022-08-01T10:41:19;22.50;99.90
22578;DHT22;11455;52.390;13.028;2022-08-01T10:43:46;22.60;99.90
22578;DHT22;11455;52.390;13.028;2022-08-01T10:46:12;22.60;99.90
22578;DHT22;11455;52.390;13.028;2022-08-01T10:48:59;22.60;99.90
22578;DHT22;11455;52.390;13.028;2022-08-01T10:51:26;22.60;99.90
22578;DHT22;11455;52.390;13.028;2022-08-01T10:53:52;22.60;99.90
22578;DHT22;11455;52.390;13.028;2022-08-01T10:56:18;22.50;99.90
22578;DHT22;11455;52.390;13.028;2022-08-01T10:58:45;22.50;99.90
22578;DHT22;11455;52.390;13.028;2022-08-01T11:03:41;22.40;99.90
22578;DHT22;11455;52.390;13.028;2022-08-01T11:06:06;22.40;99.90
22578;DHT22;11455;52.390;13.028;2022-08-01T11:08:34;22.40;99.90
22578;DHT22;11455;52.390;13.028;2022-08-01T11:11:02;22.40;99.90
22578;DHT22;11455;52.390;13.028;2022-08-01T11:16:24;22.40;99.90
22578;DHT22;11455;52.390;13.028;2022-08-01T11:18:50;22.30;99.90
22578;DHT22;11455;52.390;13.028;2022-08-01T11:21:16;22.30;99.90
22578;DHT22;11455;52.390;13.028;2022-08-01T11:23:48;22.30;99.90
22578;DHT22;11455;52.390;13.028;2022-08-01T11:26:15;22.40;99.90
22578;DHT22;11455;52.390;13.028;2022-08-01T11:28:41;22.50;99.90
22578;DHT22;11455;52.390;13.028;2022-08-01T11:38:37;23.00;99.90
22578;DHT22;11455;52.390;13.028;2022-08-01T11:49:22;23.30;56.40
22578;DHT22;11455;52.390;13.028;2022-08-01T11:51:49;23.20;50.10
22578;DHT22;11455;52.390;13.028;2022-08-01T11:54:24;23.20;38.60
22578;DHT22;11455;52.390;13.028;2022-08-01T11:56:50;23.30;38.00
22578;DHT22;11455;52.390;13.028;2022-08-01T11:59:19;23.40;32.30
22578;DHT22;11455;52.390;13.028;2022-08-01T12:01:45;23.40;26.50
22578;DHT22;11455;52.390;13.028;2022-08-01T12:04:14;23.60;14.80
22578;DHT22;11455;52.390;13.028;2022-08-01T12:06:39;23.80;1.00
22578;DHT22;11455;52.390;13.028;2022-08-01T12:12:00;24.20;1.00
22578;DHT22;11455;52.390;13.028;2022-08-01T12:14:25;24.30;1.00
22578;DHT22;11455;52.390;13.028;2022-08-01T12:16:54;24.30;1.00
22578;DHT22;11455;52.390;13.028;2022-08-01T12:19:23;24.30;1.00
22578;DHT22;11455;52.390;13.028;2022-08-01T12:24:33;24.30;1.00
22578;DHT22;11455;52.390;13.028;2022-08-01T12:26:59;24.30;1.00
22578;DHT22;11455;52.390;13.028;2022-08-01T12:32:00;24.50;1.00
22578;DHT22;11455;52.390;13.028;2022-08-01T12:34:26;24.50;1.00
22578;DHT22;11455;52.390;13.028;2022-08-01T12:36:57;24.30;1.00
22578;DHT22;11455;52.390;13.028;2022-08-01T12:39:33;24.10;1.00
22578;DHT22;11455;52.390;13.028;2022-08-01T12:41:59;24.10;1.00
22578;DHT22;11455;52.390;13.028;2022-08-01T12:44:25;24.20;1.00
22578;DHT22;11455;52.390;13.028;2022-08-01T12:46:51;24.20;1.00
22578;DHT22;11455;52.390;13.028;2022-08-01T12:49:17;24.20;1.00
22578;DHT22;11455;52.390;13.028;2022-08-01T12:51:43;24.20;1.00
22578;DHT22;11455;52.390;13.028;2022-08-01T12:54:09;24.20;1.00
22578;DHT22;11455;52.390;13.028;2022-08-01T12:56:35;24.30;1.00
22578;DHT22;11455;52.390;13.028;2022-08-01T12:59:01;24.30;1.00
22578;DHT22;11455;52.390;13.028;2022-08-01T13:01:27;24.20;1.00
22578;DHT22;11455;52.390;13.028;2022-08-01T13:03:57;24.30;1.00
22578;DHT22;11455;52.390;13.028;2022-08-01T13:06:23;24.30;1.00
22578;DHT22;11455;52.390;13.028;2022-08-01T13:08:49;24.40;1.00
22578;DHT22;11455;52.390;13.028;2022-08-01T13:11:15;24.40;1.00
22578;DHT22;11455;52.390;13.028;2022-08-01T13:13:48;24.40;1.00
22578;DHT22;11455;52.390;13.028;2022-08-01T13:16:15;24.30;1.00
22578;DHT22;11455;52.390;13.028;2022-08-01T13:18:41;24.20;1.00
22578;DHT22;11455;52.390;13.028;2022-08-01T13:21:19;24.10;1.00
22578;DHT22;11455;52.390;13.028;2022-08-01T13:24:01;24.10;1.00
22578;DHT22;11455;52.390;13.028;2022-08-01T13:29:13;24.00;1.00
22578;DHT22;11455;52.390;13.028;2022-08-01T13:31:40;24.00;1.00
22578;DHT22;11455;52.390;13.028;2022-08-01T13:34:06;24.10;1.00
22578;DHT22;11455;52.390;13.028;2022-08-01T13:36:31;24.10;1.00
22578;DHT22;11455;52.390;13.028;2022-08-01T13:38:58;24.30;1.00
22578;DHT22;11455;52.390;13.028;2022-08-01T13:41:42;24.40;1.00
22578;DHT22;11455;52.390;13.028;2022-08-01T13:44:08;24.40;1.00
22578;DHT22;11455;52.390;13.028;2022-08-01T13:46:34;24.40;1.00
22578;DHT22;11455;52.390;13.028;2022-08-01T13:49:01;24.60;1.00
22578;DHT22;11455;52.390;13.028;2022-08-01T13:51:26;24.60;1.00
22578;DHT22;11455;52.390;13.028;2022-08-01T13:53:52;24.60;1.00
22578;DHT22;11455;52.390;13.028;2022-08-01T13:56:17;24.70;1.00
22578;DHT22;11455;52.390;13.028;2022-08-01T13:58:43;24.70;1.00
22578;DHT22;11455;52.390;13.028;2022-08-01T14:01:09;24.60;1.00
22578;DHT22;11455;52.390;13.028;2022-08-01T14:03:35;24.60;1.00
22578;DHT22;11455;52.390;13.028;2022-08-01T14:06:01;24.70;1.00
22578;DHT22;11455;52.390;13.028;2022-08-01T14:08:27;24.70;1.00
22578;DHT22;11455;52.390;13.028;2022-08-01T14:10:52;24.50;1.00
22578;DHT22;11455;52.390;13.028;2022-08-01T14:13:21;24.40;1.00
22578;DHT22;11455;52.390;13.028;2022-08-01T14:15:46;24.30;1.00
22578;DHT22;11455;52.390;13.028;2022-08-01T14:18:12;24.40;1.00
22578;DHT22;11455;52.390;13.028;2022-08-01T14:20:38;24.60;1.00
22578;DHT22;11455;52.390;13.028;2022-08-01T14:23:03;24.70;1.00
22578;DHT22;11455;52.390;13.028;2022-08-01T14:25:30;24.70;1.00
22578;DHT22;11455;52.390;13.028;2022-08-01T14:27:59;24.60;1.00
22578;DHT22;11455;52.390;13.028;2022-08-01T14:30:24;24.60;1.00
22578;DHT22;11455;52.390;13.028;2022-08-01T14:32:50;24.50;1.00
22578;DHT22;11455;52.390;13.028;2022-08-01T14:35:15;24.50;1.00
22578;DHT22;11455;52.390;13.028;2022-08-01T14:37:41;24.60;1.00
22578;DHT22;11455;52.390;13.028;2022-08-01T14:40:07;24.60;1.00
22578;DHT22;11455;52.390;13.028;2022-08-01T14:42:38;24.60;1.00
22578;DHT22;11455;52.390;13.028;2022-08-01T14:45:04;24.70;1.00
22578;DHT22;11455;52.390;13.028;2022-08-01T14:47:34;24.70;1.00
22578;DHT22;11455;52.390;13.028;2022-08-01T14:50:00;24.90;1.00
22578;DHT22;11455;52.390;13.028;2022-08-01T14:52:25;24.90;1.00
22578;DHT22;11455;52.390;13.028;2022-08-01T14:54:51;25.00;1.00
22578;DHT22;11455;52.390;13.028;2022-08-01T14:57:17;25.00;1.00
22578;DHT22;11455;52.390;13.028;2022-08-01T14:59:43;24.90;1.00
22578;DHT22;11455;52.390;13.028;2022-08-01T15:02:09;24.80;1.00
22578;DHT22;11455;52.390;13.028;2022-08-01T15:04:36;24.60;1.00
22578;DHT22;11455;52.390;13.028;2022-08-01T15:07:01;24.40;1.00
22578;DHT22;11455;52.390;13.028;2022-08-01T15:09:27;24.30;1.00
22578;DHT22;11455;52.390;13.028;2022-08-01T15:11:53;24.40;1.00
22578;DHT22;11455;52.390;13.028;2022-08-01T15:14:18;24.50;1.00
22578;DHT22;11455;52.390;13.028;2022-08-01T15:17:02;24.60;1.00
22578;DHT22;11455;52.390;13.028;2022-08-01T15:19:28;24.90;1.00
22578;DHT22;11455;52.390;13.028;2022-08-01T15:21:54;25.10;1.00
22578;DHT22;11455;52.390;13.028;2022-08-01T15:24:19;25.20;1.00
22578;DHT22;11455;52.390;13.028;2022-08-01T15:26:45;25.30;1.00
22578;DHT22;11455;52.390;13.028;2022-08-01T15:29:10;25.10;1.00
22578;DHT22;11455;52.390;13.028;2022-08-01T15:31:38;25.00;1.00
22578;DHT22;11455;52.390;13.028;2022-08-01T15:34:07;25.00;1.00
22578;DHT22;11455;52.390;13.028;2022-08-01T15:36:33;25.00;1.00
22578;DHT22;11455;52.390;13.028;2022-08-01T15:38:59;25.20;1.00
22578;DHT22;11455;52.390;13.028;2022-08-01T15:41:25;25.30;1.00
22578;DHT22;11455;52.390;13.028;2022-08-01T15:43:52;25.30;1.00
22578;DHT22;11455;52.390;13.028;2022-08-01T15:46:20;25.40;1.00
22578;DHT22;11455;52.390;13.028;2022-08-01T15:48:46;25.40;1.00
22578;DHT22;11455;52.390;13.028;2022-08-01T15:51:11;25.40;1.00
22578;DHT22;11455;52.390;13.028;2022-08-01T15:53:37;25.40;1.00
22578;DHT22;11455;52.390;13.028;2022-08-01T15:56:02;25.40;1.00
22578;DHT22;11455;52.390;13.028;2022-08-01T15:58:28;25.40;1.00
22578;DHT22;11455;52.390;13.028;2022-08-01T16:00:54;25.20;1.00